sensor_id;sensor_type;location;lat;lon;timestamp;P1;durP1;ratioP1;P2;durP2;ratioP2
19776;SDS011;10047;42.490;26.012;2023-03-30T00:00:47;4.18;;;2.85;;
19776;SDS011;10047;42.490;26.012;2023-03-30T00:03:12;6.68;;;3.92;;
19776;SDS011;10047;42.490;26.012;2023-03-30T00:05:38;6.70;;;4.05;;
19776;SDS011;10047;42.490;26.012;2023-03-30T00:08:03;6.50;;;4.00;;
19776;SDS011;10047;42.490;26.012;2023-03-30T00:10:29;5.18;;;3.30;;
19776;SDS011;10047;42.490;26.012;2023-03-30T00:12:55;4.88;;;2.97;;
19776;SDS011;10047;42.490;26.012;2023-03-30T00:15:21;7.18;;;3.28;;
19776;SDS011;10047;42.490;26.012;2023-03-30T00:17:48;4.93;;;2.63;;
19776;SDS011;10047;42.490;26.012;2023-03-30T00:20:19;3.50;;;2.43;;
19776;SDS011;10047;42.490;26.012;2023-03-30T00:22:45;3.55;;;2.50;;
19776;SDS011;10047;42.490;26.012;2023-03-30T00:25:12;5.60;;;2.70;;
19776;SDS011;10047;42.490;26.012;2023-03-30T00:27:39;4.63;;;2.70;;
19776;SDS011;10047;42.490;26.012;2023-03-30T00:30:15;3.75;;;2.83;;
19776;SDS011;10047;42.490;26.012;2023-03-30T00:32:42;4.43;;;2.60;;
19776;SDS011;10047;42.490;26.012;2023-03-30T00:35:08;3.50;;;2.40;;
19776;SDS011;10047;42.490;26.012;2023-03-30T00:37:35;5.72;;;2.63;;
19776;SDS011;10047;42.490;26.012;2023-03-30T00:40:07;3.90;;;2.70;;
19776;SDS011;10047;42.490;26.012;2023-03-30T00:42:37;6.30;;;3.45;;
19776;SDS011;10047;42.490;26.012;2023-03-30T00:48:27;5.72;;;3.78;;
19776;SDS011;10047;42.490;26.012;2023-03-30T00:53:36;4.35;;;2.50;;
19776;SDS011;10047;42.490;26.012;2023-03-30T00:56:05;3.97;;;2.72;;
19776;SDS011;10047;42.490;26.012;2023-03-30T00:58:35;4.68;;;2.35;;
19776;SDS011;10047;42.490;26.012;2023-03-30T01:01:03;3.35;;;2.67;;
19776;SDS011;10047;42.490;26.012;2023-03-30T01:03:33;4.05;;;2.40;;
19776;SDS011;10047;42.490;26.012;2023-03-30T01:06:03;4.97;;;3.03;;
19776;SDS011;10047;42.490;26.012;2023-03-30T01:08:31;4.07;;;2.50;;
19776;SDS011;10047;42.490;26.012;2023-03-30T01:11:01;6.05;;;2.80;;
19776;SDS011;10047;42.490;26.012;2023-03-30T01:13:28;4.25;;;2.50;;
19776;SDS011;10047;42.490;26.012;2023-03-30T01:21:17;5.93;;;2.70;;
19776;SDS011;10047;42.490;26.012;2023-03-30T01:27:07;4.63;;;2.50;;
19776;SDS011;10047;42.490;26.012;2023-03-30T01:38:07;6.45;;;2.60;;
19776;SDS011;10047;42.490;26.012;2023-03-30T01:40:39;4.50;;;2.83;;
19776;SDS011;10047;42.490;26.012;2023-03-30T01:43:47;3.92;;;2.30;;
19776;SDS011;10047;42.490;26.012;2023-03-30T01:46:35;6.32;;;2.28;;
19776;SDS011;10047;42.490;26.012;2023-03-30T01:52:14;5.70;;;2.60;;
19776;SDS011;10047;42.490;26.012;2023-03-30T01:55:02;5.35;;;2.88;;
19776;SDS011;10047;42.490;26.012;2023-03-30T01:57:34;4.13;;;2.80;;
19776;SDS011;10047;42.490;26.012;2023-03-30T02:00:28;6.28;;;3.05;;
19776;SDS011;10047;42.490;26.012;2023-03-30T02:02:56;4.95;;;3.22;;
19776;SDS011;10047;42.490;26.012;2023-03-30T02:05:26;7.85;;;3.42;;
19776;SDS011;10047;42.490;26.012;2023-03-30T02:07:57;5.68;;;3.35;;
19776;SDS011;10047;42.490;26.012;2023-03-30T02:10:27;6.60;;;3.30;;
19776;SDS011;10047;42.490;26.012;2023-03-30T02:12:57;4.95;;;3.33;;
19776;SDS011;10047;42.490;26.012;2023-03-30T02:15:24;9.32;;;5.20;;
19776;SDS011;10047;42.490;26.012;2023-03-30T02:17:55;7.43;;;4.00;;
19776;SDS011;10047;42.490;26.012;2023-03-30T02:20:20;11.65;;;6.75;;
19776;SDS011;10047;42.490;26.012;2023-03-30T02:22:46;10.95;;;6.60;;
19776;SDS011;10047;42.490;26.012;2023-03-30T02:25:12;14.95;;;7.15;;
19776;SDS011;10047;42.490;26.012;2023-03-30T02:27:38;11.55;;;7.60;;
19776;SDS011;10047;42.490;26.012;2023-03-30T02:30:06;15.45;;;8.50;;
19776;SDS011;10047;42.490;26.012;2023-03-30T02:32:40;11.68;;;8.02;;
19776;SDS011;10047;42.490;26.012;2023-03-30T02:51:42;12.38;;;7.38;;
19776;SDS011;10047;42.490;26.012;2023-03-30T02:57:06;12.95;;;7.20;;
19776;SDS011;10047;42.490;26.012;2023-03-30T02:59:36;10.93;;;7.75;;
19776;SDS011;10047;42.490;26.012;2023-03-30T03:02:18;13.20;;;7.70;;
19776;SDS011;10047;42.490;26.012;2023-03-30T03:04:49;11.23;;;8.00;;
19776;SDS011;10047;42.490;26.012;2023-03-30T03:07:16;11.98;;;8.48;;
19776;SDS011;10047;42.490;26.012;2023-03-30T03:09:44;15.38;;;8.75;;
19776;SDS011;10047;42.490;26.012;2023-03-30T03:12:10;10.05;;;8.02;;
19776;SDS011;10047;42.490;26.012;2023-03-30T03:14:35;10.68;;;7.63;;
19776;SDS011;10047;42.490;26.012;2023-03-30T03:17:02;13.70;;;8.38;;
19776;SDS011;10047;42.490;26.012;2023-03-30T03:19:29;11.07;;;7.95;;
19776;SDS011;10047;42.490;26.012;2023-03-30T03:21:54;10.93;;;8.18;;
19776;SDS011;10047;42.490;26.012;2023-03-30T03:24:20;10.98;;;8.52;;
19776;SDS011;10047;42.490;26.012;2023-03-30T03:26:46;10.48;;;7.85;;
19776;SDS011;10047;42.490;26.012;2023-03-30T03:29:12;10.63;;;8.07;;
19776;SDS011;10047;42.490;26.012;2023-03-30T03:31:40;14.02;;;9.13;;
19776;SDS011;10047;42.490;26.012;2023-03-30T03:34:06;11.98;;;8.82;;
19776;SDS011;10047;42.490;26.012;2023-03-30T03:36:31;13.80;;;9.65;;
19776;SDS011;10047;42.490;26.012;2023-03-30T03:38:57;14.05;;;9.13;;
19776;SDS011;10047;42.490;26.012;2023-03-30T03:41:22;13.02;;;9.30;;
19776;SDS011;10047;42.490;26.012;2023-03-30T03:43:48;16.70;;;11.68;;
19776;SDS011;10047;42.490;26.012;2023-03-30T03:46:13;15.70;;;10.15;;
19776;SDS011;10047;42.490;26.012;2023-03-30T03:48:39;20.33;;;12.65;;
19776;SDS011;10047;42.490;26.012;2023-03-30T03:51:05;22.95;;;13.68;;
19776;SDS011;10047;42.490;26.012;2023-03-30T03:53:31;23.05;;;14.65;;
19776;SDS011;10047;42.490;26.012;2023-03-30T03:55:56;23.50;;;14.73;;
19776;SDS011;10047;42.490;26.012;2023-03-30T03:58:23;21.33;;;13.57;;
19776;SDS011;10047;42.490;26.012;2023-03-30T04:00:55;21.38;;;13.55;;
19776;SDS011;10047;42.490;26.012;2023-03-30T04:03:22;23.20;;;13.52;;
19776;SDS011;10047;42.490;26.012;2023-03-30T04:05:48;18.25;;;13.07;;
19776;SDS011;10047;42.490;26.012;2023-03-30T04:08:13;21.10;;;12.50;;
19776;SDS011;10047;42.490;26.012;2023-03-30T04:10:42;17.65;;;12.15;;
19776;SDS011;10047;42.490;26.012;2023-03-30T04:13:08;18.90;;;12.20;;
19776;SDS011;10047;42.490;26.012;2023-03-30T04:15:33;20.08;;;12.02;;
19776;SDS011;10047;42.490;26.012;2023-03-30T04:17:59;19.15;;;11.43;;
19776;SDS011;10047;42.490;26.012;2023-03-30T04:20:25;23.10;;;12.05;;
19776;SDS011;10047;42.490;26.012;2023-03-30T04:22:52;20.25;;;11.70;;
19776;SDS011;10047;42.490;26.012;2023-03-30T04:25:22;20.42;;;12.60;;
19776;SDS011;10047;42.490;26.012;2023-03-30T04:27:52;19.45;;;13.02;;
19776;SDS011;10047;42.490;26.012;2023-03-30T04:30:18;23.63;;;14.70;;
19776;SDS011;10047;42.490;26.012;2023-03-30T04:32:46;25.17;;;14.35;;
19776;SDS011;10047;42.490;26.012;2023-03-30T04:35:18;26.60;;;16.05;;
19776;SDS011;10047;42.490;26.012;2023-03-30T04:37:44;20.95;;;14.55;;
19776;SDS011;10047;42.490;26.012;2023-03-30T04:40:11;29.90;;;16.02;;
19776;SDS011;10047;42.490;26.012;2023-03-30T04:42:37;25.15;;;15.93;;
19776;SDS011;10047;42.490;26.012;2023-03-30T04:45:03;30.88;;;18.70;;
19776;SDS011;10047;42.490;26.012;2023-03-30T04:47:30;36.78;;;21.02;;
19776;SDS011;10047;42.490;26.012;2023-03-30T04:49:56;49.00;;;26.17;;
19776;SDS011;10047;42.490;26.012;2023-03-30T04:52:21;41.78;;;21.75;;
19776;SDS011;10047;42.490;26.012;2023-03-30T04:54:47;42.78;;;24.77;;
19776;SDS011;10047;42.490;26.012;2023-03-30T04:57:13;34.08;;;20.25;;
19776;SDS011;10047;42.490;26.012;2023-03-30T04:59:40;30.48;;;18.05;;
19776;SDS011;10047;42.490;26.012;2023-03-30T05:02:06;26.48;;;16.15;;
19776;SDS011;10047;42.490;26.012;2023-03-30T05:04:33;27.88;;;16.63;;
19776;SDS011;10047;42.490;26.012;2023-03-30T05:06:58;26.63;;;15.32;;
19776;SDS011;10047;42.490;26.012;2023-03-30T05:09:24;21.08;;;13.75;;
19776;SDS011;10047;42.490;26.012;2023-03-30T05:11:49;25.65;;;13.15;;
19776;SDS011;10047;42.490;26.012;2023-03-30T05:14:15;21.50;;;12.63;;
19776;SDS011;10047;42.490;26.012;2023-03-30T05:16:40;19.58;;;12.07;;
19776;SDS011;10047;42.490;26.012;2023-03-30T05:19:06;20.02;;;10.48;;
19776;SDS011;10047;42.490;26.012;2023-03-30T05:21:32;17.50;;;10.70;;
19776;SDS011;10047;42.490;26.012;2023-03-30T05:23:57;16.67;;;10.77;;
19776;SDS011;10047;42.490;26.012;2023-03-30T05:26:23;30.30;;;15.40;;
19776;SDS011;10047;42.490;26.012;2023-03-30T05:28:49;29.95;;;16.88;;
19776;SDS011;10047;42.490;26.012;2023-03-30T05:31:14;22.95;;;13.68;;
19776;SDS011;10047;42.490;26.012;2023-03-30T05:33:41;24.38;;;12.77;;
19776;SDS011;10047;42.490;26.012;2023-03-30T05:36:07;18.95;;;11.52;;
19776;SDS011;10047;42.490;26.012;2023-03-30T05:38:32;16.65;;;10.82;;
19776;SDS011;10047;42.490;26.012;2023-03-30T05:40:58;17.63;;;11.15;;
19776;SDS011;10047;42.490;26.012;2023-03-30T05:43:24;17.67;;;10.90;;
19776;SDS011;10047;42.490;26.012;2023-03-30T05:45:49;15.30;;;10.77;;
19776;SDS011;10047;42.490;26.012;2023-03-30T05:48:15;18.70;;;11.70;;
19776;SDS011;10047;42.490;26.012;2023-03-30T05:50:40;16.77;;;11.52;;
19776;SDS011;10047;42.490;26.012;2023-03-30T05:53:06;18.25;;;13.07;;
19776;SDS011;10047;42.490;26.012;2023-03-30T05:55:32;23.00;;;16.95;;
19776;SDS011;10047;42.490;26.012;2023-03-30T05:57:58;18.73;;;12.93;;
19776;SDS011;10047;42.490;26.012;2023-03-30T06:00:23;20.50;;;12.20;;
19776;SDS011;10047;42.490;26.012;2023-03-30T06:02:49;19.08;;;11.98;;
19776;SDS011;10047;42.490;26.012;2023-03-30T06:05:16;22.73;;;13.70;;
19776;SDS011;10047;42.490;26.012;2023-03-30T06:07:43;16.55;;;10.27;;
19776;SDS011;10047;42.490;26.012;2023-03-30T06:10:09;15.63;;;9.82;;
19776;SDS011;10047;42.490;26.012;2023-03-30T06:12:37;19.52;;;11.40;;
19776;SDS011;10047;42.490;26.012;2023-03-30T06:15:03;16.50;;;10.23;;
19776;SDS011;10047;42.490;26.012;2023-03-30T06:17:30;13.38;;;9.55;;
19776;SDS011;10047;42.490;26.012;2023-03-30T06:19:56;23.27;;;10.38;;
19776;SDS011;10047;42.490;26.012;2023-03-30T06:22:21;74.68;;;34.67;;
19776;SDS011;10047;42.490;26.012;2023-03-30T06:24:47;21.65;;;9.20;;
19776;SDS011;10047;42.490;26.012;2023-03-30T06:27:12;22.63;;;10.15;;
19776;SDS011;10047;42.490;26.012;2023-03-30T06:29:38;15.85;;;7.90;;
19776;SDS011;10047;42.490;26.012;2023-03-30T06:32:03;10.98;;;7.03;;
19776;SDS011;10047;42.490;26.012;2023-03-30T06:34:29;11.75;;;7.78;;
19776;SDS011;10047;42.490;26.012;2023-03-30T06:36:55;12.70;;;8.50;;
19776;SDS011;10047;42.490;26.012;2023-03-30T06:39:21;12.30;;;6.40;;
19776;SDS011;10047;42.490;26.012;2023-03-30T06:41:46;10.38;;;6.07;;
19776;SDS011;10047;42.490;26.012;2023-03-30T06:44:12;10.00;;;5.97;;
19776;SDS011;10047;42.490;26.012;2023-03-30T06:46:41;8.60;;;6.07;;
19776;SDS011;10047;42.490;26.012;2023-03-30T06:49:10;23.75;;;12.57;;
19776;SDS011;10047;42.490;26.012;2023-03-30T06:51:38;12.43;;;7.78;;
19776;SDS011;10047;42.490;26.012;2023-03-30T06:54:03;11.07;;;6.43;;
19776;SDS011;10047;42.490;26.012;2023-03-30T06:56:29;8.57;;;6.22;;
19776;SDS011;10047;42.490;26.012;2023-03-30T06:58:54;12.77;;;7.15;;
19776;SDS011;10047;42.490;26.012;2023-03-30T07:01:21;6.82;;;4.78;;
19776;SDS011;10047;42.490;26.012;2023-03-30T07:03:46;6.85;;;4.97;;
19776;SDS011;10047;42.490;26.012;2023-03-30T07:06:11;5.65;;;4.47;;
19776;SDS011;10047;42.490;26.012;2023-03-30T07:08:37;6.93;;;4.50;;
19776;SDS011;10047;42.490;26.012;2023-03-30T07:11:04;7.55;;;4.93;;
19776;SDS011;10047;42.490;26.012;2023-03-30T07:13:31;6.70;;;4.88;;
19776;SDS011;10047;42.490;26.012;2023-03-30T07:15:57;7.20;;;4.85;;
19776;SDS011;10047;42.490;26.012;2023-03-30T07:18:23;6.80;;;4.90;;
19776;SDS011;10047;42.490;26.012;2023-03-30T07:20:48;8.38;;;4.65;;
19776;SDS011;10047;42.490;26.012;2023-03-30T07:23:15;7.30;;;4.63;;
19776;SDS011;10047;42.490;26.012;2023-03-30T07:25:41;6.30;;;4.30;;
19776;SDS011;10047;42.490;26.012;2023-03-30T07:28:08;5.80;;;4.40;;
19776;SDS011;10047;42.490;26.012;2023-03-30T07:30:34;8.25;;;5.00;;
19776;SDS011;10047;42.490;26.012;2023-03-30T07:33:00;7.25;;;4.50;;
19776;SDS011;10047;42.490;26.012;2023-03-30T07:35:26;6.30;;;4.20;;
19776;SDS011;10047;42.490;26.012;2023-03-30T07:37:52;5.88;;;3.47;;
19776;SDS011;10047;42.490;26.012;2023-03-30T07:40:18;6.88;;;3.50;;
19776;SDS011;10047;42.490;26.012;2023-03-30T07:42:45;4.30;;;3.40;;
19776;SDS011;10047;42.490;26.012;2023-03-30T07:45:11;3.95;;;2.65;;
19776;SDS011;10047;42.490;26.012;2023-03-30T07:47:37;4.80;;;3.38;;
19776;SDS011;10047;42.490;26.012;2023-03-30T07:50:03;3.80;;;2.95;;
19776;SDS011;10047;42.490;26.012;2023-03-30T07:52:30;7.63;;;3.70;;
19776;SDS011;10047;42.490;26.012;2023-03-30T07:54:56;4.93;;;3.20;;
19776;SDS011;10047;42.490;26.012;2023-03-30T07:57:22;3.85;;;2.80;;
19776;SDS011;10047;42.490;26.012;2023-03-30T07:59:48;3.65;;;2.63;;
19776;SDS011;10047;42.490;26.012;2023-03-30T08:02:14;4.97;;;2.53;;
19776;SDS011;10047;42.490;26.012;2023-03-30T08:04:39;3.90;;;2.67;;
19776;SDS011;10047;42.490;26.012;2023-03-30T08:07:05;5.05;;;3.00;;
19776;SDS011;10047;42.490;26.012;2023-03-30T08:09:31;4.55;;;3.00;;
19776;SDS011;10047;42.490;26.012;2023-03-30T08:11:58;4.63;;;3.10;;
19776;SDS011;10047;42.490;26.012;2023-03-30T08:14:24;3.78;;;2.80;;
19776;SDS011;10047;42.490;26.012;2023-03-30T08:16:51;3.80;;;2.90;;
19776;SDS011;10047;42.490;26.012;2023-03-30T08:19:18;5.60;;;2.55;;
19776;SDS011;10047;42.490;26.012;2023-03-30T08:21:44;5.40;;;3.70;;
19776;SDS011;10047;42.490;26.012;2023-03-30T08:24:10;7.25;;;3.75;;
19776;SDS011;10047;42.490;26.012;2023-03-30T08:26:36;5.45;;;3.10;;
19776;SDS011;10047;42.490;26.012;2023-03-30T08:29:02;5.50;;;3.30;;
19776;SDS011;10047;42.490;26.012;2023-03-30T08:31:27;5.22;;;2.63;;
19776;SDS011;10047;42.490;26.012;2023-03-30T08:33:57;3.42;;;2.15;;
19776;SDS011;10047;42.490;26.012;2023-03-30T08:36:27;3.40;;;2.30;;
19776;SDS011;10047;42.490;26.012;2023-03-30T08:38:53;3.28;;;2.47;;
19776;SDS011;10047;42.490;26.012;2023-03-30T08:46:22;4.75;;;2.63;;
19776;SDS011;10047;42.490;26.012;2023-03-30T08:48:48;5.00;;;2.13;;
19776;SDS011;10047;42.490;26.012;2023-03-30T08:51:23;4.13;;;2.25;;
19776;SDS011;10047;42.490;26.012;2023-03-30T08:53:54;5.05;;;2.53;;
19776;SDS011;10047;42.490;26.012;2023-03-30T08:56:33;3.55;;;2.63;;
19776;SDS011;10047;42.490;26.012;2023-03-30T09:09:22;6.63;;;2.90;;
19776;SDS011;10047;42.490;26.012;2023-03-30T09:12:01;3.45;;;2.70;;
19776;SDS011;10047;42.490;26.012;2023-03-30T09:14:39;3.30;;;2.70;;
19776;SDS011;10047;42.490;26.012;2023-03-30T09:17:12;4.30;;;2.75;;
19776;SDS011;10047;42.490;26.012;2023-03-30T09:19:59;3.30;;;2.80;;
19776;SDS011;10047;42.490;26.012;2023-03-30T09:22:32;5.40;;;2.78;;
19776;SDS011;10047;42.490;26.012;2023-03-30T09:25:16;6.10;;;4.07;;
19776;SDS011;10047;42.490;26.012;2023-03-30T09:27:55;4.00;;;3.03;;
19776;SDS011;10047;42.490;26.012;2023-03-30T09:30:48;6.03;;;1.80;;
19776;SDS011;10047;42.490;26.012;2023-03-30T09:36:16;4.80;;;3.00;;
19776;SDS011;10047;42.490;26.012;2023-03-30T09:38:42;5.45;;;3.03;;
19776;SDS011;10047;42.490;26.012;2023-03-30T09:43:59;5.07;;;3.20;;
19776;SDS011;10047;42.490;26.012;2023-03-30T09:46:26;8.48;;;5.00;;
19776;SDS011;10047;42.490;26.012;2023-03-30T09:48:52;5.65;;;2.88;;
19776;SDS011;10047;42.490;26.012;2023-03-30T09:51:27;8.57;;;2.08;;
19776;SDS011;10047;42.490;26.012;2023-03-30T09:53:59;3.38;;;1.77;;
19776;SDS011;10047;42.490;26.012;2023-03-30T09:58:59;3.28;;;2.20;;
19776;SDS011;10047;42.490;26.012;2023-03-30T10:01:44;4.07;;;2.50;;
19776;SDS011;10047;42.490;26.012;2023-03-30T10:04:10;2.65;;;1.95;;
19776;SDS011;10047;42.490;26.012;2023-03-30T10:06:37;4.25;;;1.98;;
19776;SDS011;10047;42.490;26.012;2023-03-30T10:09:10;5.00;;;1.95;;
19776;SDS011;10047;42.490;26.012;2023-03-30T10:14:04;3.25;;;1.95;;
19776;SDS011;10047;42.490;26.012;2023-03-30T10:16:31;2.72;;;2.00;;
19776;SDS011;10047;42.490;26.012;2023-03-30T10:19:01;2.78;;;2.00;;
19776;SDS011;10047;42.490;26.012;2023-03-30T10:24:00;4.65;;;2.80;;
19776;SDS011;10047;42.490;26.012;2023-03-30T10:26:28;5.55;;;3.00;;
19776;SDS011;10047;42.490;26.012;2023-03-30T10:28:55;3.70;;;2.85;;
19776;SDS011;10047;42.490;26.012;2023-03-30T10:31:36;6.35;;;3.33;;
19776;SDS011;10047;42.490;26.012;2023-03-30T10:34:04;4.20;;;2.72;;
19776;SDS011;10047;42.490;26.012;2023-03-30T10:36:40;5.88;;;2.90;;
19776;SDS011;10047;42.490;26.012;2023-03-30T10:39:11;3.65;;;2.10;;
19776;SDS011;10047;42.490;26.012;2023-03-30T10:41:38;4.80;;;2.45;;
19776;SDS011;10047;42.490;26.012;2023-03-30T10:44:14;5.50;;;2.67;;
19776;SDS011;10047;42.490;26.012;2023-03-30T10:46:41;2.97;;;2.20;;
19776;SDS011;10047;42.490;26.012;2023-03-30T10:49:21;5.78;;;2.60;;
19776;SDS011;10047;42.490;26.012;2023-03-30T10:52:02;5.97;;;3.72;;
19776;SDS011;10047;42.490;26.012;2023-03-30T10:54:59;8.35;;;3.30;;
19776;SDS011;10047;42.490;26.012;2023-03-30T10:57:31;3.33;;;2.75;;
19776;SDS011;10047;42.490;26.012;2023-03-30T11:02:58;4.93;;;2.00;;
19776;SDS011;10047;42.490;26.012;2023-03-30T11:05:31;8.70;;;5.60;;
19776;SDS011;10047;42.490;26.012;2023-03-30T11:08:10;8.68;;;7.20;;
19776;SDS011;10047;42.490;26.012;2023-03-30T11:10:45;6.97;;;3.70;;
19776;SDS011;10047;42.490;26.012;2023-03-30T11:13:14;9.60;;;3.95;;
19776;SDS011;10047;42.490;26.012;2023-03-30T11:16:18;4.70;;;2.63;;
19776;SDS011;10047;42.490;26.012;2023-03-30T11:21:16;3.78;;;2.58;;
19776;SDS011;10047;42.490;26.012;2023-03-30T11:26:37;3.60;;;3.17;;
19776;SDS011;10047;42.490;26.012;2023-03-30T11:35:00;3.08;;;2.53;;
19776;SDS011;10047;42.490;26.012;2023-03-30T11:42:43;6.95;;;5.60;;
19776;SDS011;10047;42.490;26.012;2023-03-30T12:10:03;4.75;;;2.80;;
19776;SDS011;10047;42.490;26.012;2023-03-30T12:12:41;5.28;;;2.70;;
19776;SDS011;10047;42.490;26.012;2023-03-30T12:15:10;4.43;;;2.83;;
19776;SDS011;10047;42.490;26.012;2023-03-30T12:22:49;5.00;;;4.07;;
19776;SDS011;10047;42.490;26.012;2023-03-30T12:25:22;10.80;;;7.20;;
19776;SDS011;10047;42.490;26.012;2023-03-30T12:30:27;5.70;;;3.38;;
19776;SDS011;10047;42.490;26.012;2023-03-30T12:35:44;7.60;;;4.50;;
19776;SDS011;10047;42.490;26.012;2023-03-30T12:38:18;8.77;;;4.25;;
19776;SDS011;10047;42.490;26.012;2023-03-30T12:40:51;7.07;;;4.63;;
19776;SDS011;10047;42.490;26.012;2023-03-30T12:46:11;4.32;;;3.13;;
19776;SDS011;10047;42.490;26.012;2023-03-30T13:05:01;6.40;;;3.58;;
19776;SDS011;10047;42.490;26.012;2023-03-30T13:10:33;7.07;;;4.53;;
19776;SDS011;10047;42.490;26.012;2023-03-30T13:12:55;5.20;;;2.97;;
19776;SDS011;10047;42.490;26.012;2023-03-30T13:15:39;4.95;;;3.65;;
19776;SDS011;10047;42.490;26.012;2023-03-30T13:20:36;4.60;;;2.40;;
19776;SDS011;10047;42.490;26.012;2023-03-30T13:28:54;3.60;;;2.70;;
19776;SDS011;10047;42.490;26.012;2023-03-30T13:34:28;6.80;;;4.30;;
19776;SDS011;10047;42.490;26.012;2023-03-30T13:51:28;10.70;;;5.43;;
19776;SDS011;10047;42.490;26.012;2023-03-30T13:54:06;5.57;;;3.55;;
19776;SDS011;10047;42.490;26.012;2023-03-30T13:56:38;4.28;;;3.00;;
19776;SDS011;10047;42.490;26.012;2023-03-30T13:59:19;4.47;;;2.70;;
19776;SDS011;10047;42.490;26.012;2023-03-30T14:01:52;5.20;;;3.05;;
19776;SDS011;10047;42.490;26.012;2023-03-30T14:04:20;4.15;;;2.88;;
19776;SDS011;10047;42.490;26.012;2023-03-30T14:06:47;6.03;;;4.35;;
19776;SDS011;10047;42.490;26.012;2023-03-30T14:09:24;8.13;;;4.63;;
19776;SDS011;10047;42.490;26.012;2023-03-30T14:11:52;6.03;;;3.45;;
19776;SDS011;10047;42.490;26.012;2023-03-30T14:16:54;9.05;;;6.05;;
19776;SDS011;10047;42.490;26.012;2023-03-30T14:19:23;5.40;;;3.42;;
19776;SDS011;10047;42.490;26.012;2023-03-30T14:21:55;4.65;;;2.83;;
19776;SDS011;10047;42.490;26.012;2023-03-30T14:24:28;5.07;;;3.05;;
19776;SDS011;10047;42.490;26.012;2023-03-30T14:27:13;5.00;;;2.75;;
19776;SDS011;10047;42.490;26.012;2023-03-30T14:29:44;18.58;;;11.10;;
19776;SDS011;10047;42.490;26.012;2023-03-30T14:32:13;11.05;;;7.03;;
19776;SDS011;10047;42.490;26.012;2023-03-30T14:34:44;3.40;;;2.30;;
19776;SDS011;10047;42.490;26.012;2023-03-30T14:37:10;3.00;;;2.22;;
19776;SDS011;10047;42.490;26.012;2023-03-30T14:39:44;6.85;;;3.60;;
19776;SDS011;10047;42.490;26.012;2023-03-30T14:42:18;4.07;;;2.80;;
19776;SDS011;10047;42.490;26.012;2023-03-30T14:44:46;12.10;;;6.00;;
19776;SDS011;10047;42.490;26.012;2023-03-30T14:47:14;5.38;;;2.20;;
19776;SDS011;10047;42.490;26.012;2023-03-30T14:49:43;11.38;;;6.00;;
19776;SDS011;10047;42.490;26.012;2023-03-30T14:52:15;5.15;;;3.00;;
19776;SDS011;10047;42.490;26.012;2023-03-30T14:54:43;4.47;;;2.50;;
19776;SDS011;10047;42.490;26.012;2023-03-30T14:57:10;4.15;;;2.25;;
19776;SDS011;10047;42.490;26.012;2023-03-30T14:59:41;5.85;;;3.10;;
19776;SDS011;10047;42.490;26.012;2023-03-30T15:02:16;7.97;;;3.92;;
19776;SDS011;10047;42.490;26.012;2023-03-30T15:04:45;9.20;;;3.15;;
19776;SDS011;10047;42.490;26.012;2023-03-30T15:07:12;13.95;;;7.13;;
19776;SDS011;10047;42.490;26.012;2023-03-30T15:09:40;6.13;;;3.10;;
19776;SDS011;10047;42.490;26.012;2023-03-30T15:12:10;5.68;;;2.65;;
19776;SDS011;10047;42.490;26.012;2023-03-30T15:14:44;7.68;;;2.90;;
19776;SDS011;10047;42.490;26.012;2023-03-30T15:17:14;5.55;;;2.97;;
19776;SDS011;10047;42.490;26.012;2023-03-30T15:19:43;4.00;;;2.58;;
19776;SDS011;10047;42.490;26.012;2023-03-30T15:22:32;4.18;;;2.40;;
19776;SDS011;10047;42.490;26.012;2023-03-30T15:25:06;3.40;;;1.98;;
19776;SDS011;10047;42.490;26.012;2023-03-30T15:27:37;2.55;;;2.05;;
19776;SDS011;10047;42.490;26.012;2023-03-30T15:30:05;4.97;;;2.50;;
19776;SDS011;10047;42.490;26.012;2023-03-30T15:38:00;4.38;;;2.13;;
19776;SDS011;10047;42.490;26.012;2023-03-30T15:40:36;4.50;;;2.80;;
19776;SDS011;10047;42.490;26.012;2023-03-30T15:48:17;3.16;;;2.66;;
19776;SDS011;10047;42.490;26.012;2023-03-30T15:50:46;3.50;;;2.40;;
19776;SDS011;10047;42.490;26.012;2023-03-30T15:53:19;5.57;;;3.20;;
19776;SDS011;10047;42.490;26.012;2023-03-30T15:55:55;4.97;;;2.63;;
19776;SDS011;10047;42.490;26.012;2023-03-30T15:58:23;3.83;;;2.45;;
19776;SDS011;10047;42.490;26.012;2023-03-30T16:00:50;7.63;;;3.60;;
19776;SDS011;10047;42.490;26.012;2023-03-30T16:03:18;7.97;;;4.40;;
19776;SDS011;10047;42.490;26.012;2023-03-30T16:05:56;7.80;;;4.78;;
19776;SDS011;10047;42.490;26.012;2023-03-30T16:08:22;9.27;;;5.68;;
19776;SDS011;10047;42.490;26.012;2023-03-30T16:10:49;11.60;;;6.10;;
19776;SDS011;10047;42.490;26.012;2023-03-30T16:13:15;15.32;;;9.15;;
19776;SDS011;10047;42.490;26.012;2023-03-30T16:15:40;15.55;;;10.15;;
19776;SDS011;10047;42.490;26.012;2023-03-30T16:18:05;26.33;;;21.08;;
19776;SDS011;10047;42.490;26.012;2023-03-30T16:20:31;24.83;;;17.33;;
19776;SDS011;10047;42.490;26.012;2023-03-30T16:22:57;21.38;;;13.48;;
19776;SDS011;10047;42.490;26.012;2023-03-30T16:25:23;28.83;;;18.35;;
19776;SDS011;10047;42.490;26.012;2023-03-30T16:27:50;25.48;;;17.40;;
19776;SDS011;10047;42.490;26.012;2023-03-30T16:32:51;10.63;;;6.90;;
19776;SDS011;10047;42.490;26.012;2023-03-30T16:35:16;8.48;;;4.53;;
19776;SDS011;10047;42.490;26.012;2023-03-30T16:37:42;7.78;;;4.53;;
19776;SDS011;10047;42.490;26.012;2023-03-30T16:43:03;10.05;;;6.20;;
19776;SDS011;10047;42.490;26.012;2023-03-30T16:45:29;11.10;;;6.13;;
19776;SDS011;10047;42.490;26.012;2023-03-30T16:47:56;11.10;;;6.10;;
19776;SDS011;10047;42.490;26.012;2023-03-30T16:52:49;8.95;;;6.43;;
19776;SDS011;10047;42.490;26.012;2023-03-30T16:55:15;8.95;;;6.57;;
19776;SDS011;10047;42.490;26.012;2023-03-30T16:57:41;9.15;;;6.35;;
19776;SDS011;10047;42.490;26.012;2023-03-30T17:00:15;8.82;;;5.85;;
19776;SDS011;10047;42.490;26.012;2023-03-30T17:02:43;16.80;;;9.05;;
19776;SDS011;10047;42.490;26.012;2023-03-30T17:05:08;14.75;;;10.13;;
19776;SDS011;10047;42.490;26.012;2023-03-30T17:07:34;19.17;;;14.80;;
19776;SDS011;10047;42.490;26.012;2023-03-30T17:10:05;23.92;;;18.33;;
19776;SDS011;10047;42.490;26.012;2023-03-30T17:12:39;24.60;;;17.85;;
19776;SDS011;10047;42.490;26.012;2023-03-30T17:15:05;22.83;;;15.23;;
19776;SDS011;10047;42.490;26.012;2023-03-30T17:17:31;14.43;;;10.05;;
19776;SDS011;10047;42.490;26.012;2023-03-30T17:19:58;10.95;;;7.55;;
19776;SDS011;10047;42.490;26.012;2023-03-30T17:22:38;11.38;;;8.65;;
19776;SDS011;10047;42.490;26.012;2023-03-30T17:25:04;12.35;;;6.60;;
19776;SDS011;10047;42.490;26.012;2023-03-30T17:27:30;15.02;;;10.10;;
19776;SDS011;10047;42.490;26.012;2023-03-30T17:29:55;11.73;;;7.22;;
19776;SDS011;10047;42.490;26.012;2023-03-30T17:32:20;13.93;;;7.07;;
19776;SDS011;10047;42.490;26.012;2023-03-30T17:34:46;12.93;;;8.10;;
19776;SDS011;10047;42.490;26.012;2023-03-30T17:37:11;10.77;;;6.75;;
19776;SDS011;10047;42.490;26.012;2023-03-30T17:39:36;10.63;;;5.90;;
19776;SDS011;10047;42.490;26.012;2023-03-30T17:42:05;8.50;;;5.57;;
19776;SDS011;10047;42.490;26.012;2023-03-30T17:44:30;8.45;;;5.40;;
19776;SDS011;10047;42.490;26.012;2023-03-30T17:46:56;13.32;;;6.30;;
19776;SDS011;10047;42.490;26.012;2023-03-30T17:49:22;14.55;;;7.55;;
19776;SDS011;10047;42.490;26.012;2023-03-30T17:51:47;12.32;;;7.45;;
19776;SDS011;10047;42.490;26.012;2023-03-30T17:54:12;11.15;;;6.78;;